createdAt,value
2023-03-25T00:00:19.249Z,1.42
2023-03-25T00:00:44.757Z,1.38
2023-03-25T00:01:09.296Z,1.50
2023-03-25T00:01:33.221Z,1.30
2023-03-25T00:01:56.057Z,1.30
2023-03-25T00:02:21.859Z,1.13
2023-03-25T00:02:48.429Z,1.10
2023-03-25T00:03:11.690Z,1.30
2023-03-25T00:03:34.582Z,1.20
2023-03-25T00:03:58.625Z,1.17
2023-03-25T00:04:21.397Z,1.23
2023-03-25T00:04:44.147Z,1.17
2023-03-25T00:05:08.504Z,1.23
2023-03-25T00:05:31.720Z,1.13
2023-03-25T00:05:55.082Z,1.02
2023-03-25T00:06:17.951Z,0.93
2023-03-25T00:06:40.763Z,1.20
2023-03-25T00:07:03.561Z,1.00
2023-03-25T00:07:26.474Z,1.00
2023-03-25T00:07:50.184Z,1.10
2023-03-25T00:08:13.460Z,0.90
2023-03-25T00:08:36.508Z,0.98
2023-03-25T00:08:59.204Z,1.10
2023-03-25T00:09:22.024Z,1.15
2023-03-25T00:09:44.804Z,0.90
2023-03-25T00:10:09.671Z,1.00
2023-03-25T00:10:32.492Z,1.00
2023-03-25T00:10:55.879Z,1.10
2023-03-25T00:11:18.701Z,1.02
2023-03-25T00:11:41.448Z,1.10
2023-03-25T00:12:04.573Z,0.82
2023-03-25T00:12:28.715Z,1.10
2023-03-25T00:12:52.014Z,1.20
2023-03-25T00:13:15.549Z,1.25
2023-03-25T00:13:38.318Z,1.25
2023-03-25T00:14:01.119Z,1.00
2023-03-25T00:14:25.226Z,0.90
2023-03-25T00:14:55.268Z,1.02
2023-03-25T00:15:18.509Z,1.25
2023-03-25T00:15:43.203Z,1.27
2023-03-25T00:16:07.260Z,1.23
2023-03-25T00:16:30.092Z,0.93
2023-03-25T00:16:53.689Z,0.90
2023-03-25T00:17:17.608Z,1.08
2023-03-25T00:17:40.570Z,0.98
2023-03-25T00:18:03.430Z,1.00
2023-03-25T00:18:29.321Z,1.00
2023-03-25T00:18:52.011Z,1.10
2023-03-25T00:19:15.731Z,1.23
2023-03-25T00:19:38.439Z,1.10
2023-03-25T00:20:05.301Z,1.00
2023-03-25T00:20:28.178Z,1.17
2023-03-25T00:20:51.605Z,1.00
2023-03-25T00:21:14.388Z,1.00
2023-03-25T00:21:37.866Z,1.08
2023-03-25T00:22:00.565Z,1.00
2023-03-25T00:22:23.401Z,1.10
2023-03-25T00:22:49.601Z,1.00
2023-03-25T00:23:12.443Z,1.10
2023-03-25T00:23:35.546Z,0.93
2023-03-25T00:23:58.337Z,1.00
2023-03-25T00:24:21.092Z,1.65
2023-03-25T00:24:43.851Z,3.13
2023-03-25T00:25:08.683Z,3.40
2023-03-25T00:25:32.655Z,3.22
2023-03-25T00:26:00.693Z,2.78
2023-03-25T00:26:23.579Z,3.25
2023-03-25T00:26:46.297Z,3.08
2023-03-25T00:27:09.038Z,2.92
2023-03-25T00:27:33.305Z,2.83
2023-03-25T00:27:57.009Z,2.38
2023-03-25T00:28:22.194Z,2.13
2023-03-25T00:28:44.990Z,2.00
2023-03-25T00:29:07.682Z,1.73
2023-03-25T00:29:30.463Z,1.50
2023-03-25T00:29:53.205Z,1.60
2023-03-25T00:30:16.133Z,1.60
2023-03-25T00:30:38.943Z,1.50
2023-03-25T00:31:02.888Z,1.40
2023-03-25T00:31:25.983Z,1.60
2023-03-25T00:31:48.657Z,1.60
2023-03-25T00:32:11.491Z,1.60
2023-03-25T00:32:35.780Z,1.58
2023-03-25T00:33:01.840Z,1.40
2023-03-25T00:33:24.799Z,1.50
2023-03-25T00:33:47.558Z,1.50
2023-03-25T00:34:14.622Z,1.40
2023-03-25T00:34:42.096Z,1.10
2023-03-25T00:35:05.777Z,1.00
2023-03-25T00:35:29.250Z,1.30
2023-03-25T00:35:52.903Z,1.20
2023-03-25T00:36:18.426Z,1.00
2023-03-25T00:36:41.797Z,1.10
2023-03-25T00:37:04.485Z,1.30
2023-03-25T00:37:27.566Z,1.23
2023-03-25T00:37:57.975Z,1.40
2023-03-25T00:38:20.787Z,1.20
2023-03-25T00:38:43.969Z,1.20
2023-03-25T00:39:06.746Z,1.17
2023-03-25T00:39:29.459Z,1.20
2023-03-25T00:39:52.242Z,1.30
2023-03-25T00:40:15.040Z,1.15
2023-03-25T00:40:37.860Z,1.20
2023-03-25T00:41:09.934Z,1.10
2023-03-25T00:41:33.940Z,1.20
2023-03-25T00:41:57.632Z,1.20
2023-03-25T00:42:26.483Z,1.10
2023-03-25T00:42:51.001Z,1.10
2023-03-25T00:43:14.740Z,1.00
2023-03-25T00:43:37.497Z,1.17
2023-03-25T00:44:00.859Z,1.20
2023-03-25T00:44:23.560Z,1.30
2023-03-25T00:44:46.247Z,1.10
2023-03-25T00:45:11.224Z,0.95
2023-03-25T00:45:34.250Z,1.10
2023-03-25T00:45:57.112Z,1.00
2023-03-25T00:46:20.049Z,1.20
2023-03-25T00:46:42.892Z,1.25
2023-03-25T00:47:05.766Z,1.27
2023-03-25T00:47:28.567Z,1.10
2023-03-25T00:47:51.387Z,1.27
2023-03-25T00:48:14.132Z,1.25
2023-03-25T00:48:36.972Z,1.13
2023-03-25T00:49:00.048Z,1.20
2023-03-25T00:49:28.840Z,1.20
2023-03-25T00:49:52.248Z,1.20
2023-03-25T00:50:14.966Z,1.10
2023-03-25T00:50:37.706Z,1.17
2023-03-25T00:51:07.385Z,1.20
2023-03-25T00:51:31.558Z,1.10
2023-03-25T00:51:54.585Z,1.13
2023-03-25T00:52:18.475Z,1.05
2023-03-25T00:52:41.851Z,1.10
2023-03-25T00:53:04.640Z,1.00
2023-03-25T00:53:27.406Z,1.00
2023-03-25T00:53:53.512Z,1.10
2023-03-25T00:54:17.141Z,1.10
2023-03-25T00:54:39.867Z,1.10
2023-03-25T00:55:02.898Z,1.20
2023-03-25T00:55:25.641Z,1.20
2023-03-25T00:55:48.489Z,1.20
2023-03-25T00:56:12.415Z,1.15
2023-03-25T00:56:35.802Z,1.00
2023-03-25T00:56:58.833Z,1.00
2023-03-25T00:57:22.502Z,1.30
2023-03-25T00:57:45.496Z,1.10
2023-03-25T00:58:09.700Z,1.20
2023-03-25T00:58:32.559Z,1.08
2023-03-25T00:58:55.722Z,1.20
2023-03-25T00:59:18.571Z,1.00
2023-03-25T00:59:41.300Z,1.00
2023-03-25T01:00:06.594Z,0.98
2023-03-25T01:00:29.421Z,1.10
2023-03-25T01:00:52.132Z,1.00
2023-03-25T01:01:19.224Z,1.00
2023-03-25T01:01:43.565Z,1.10
2023-03-25T01:02:07.377Z,1.17
2023-03-25T01:02:31.349Z,1.10
2023-03-25T01:02:54.489Z,1.13
2023-03-25T01:03:20.120Z,1.10
2023-03-25T01:03:46.043Z,1.10
2023-03-25T01:04:12.711Z,1.10
2023-03-25T01:04:35.659Z,1.15
2023-03-25T01:05:00.335Z,1.00
2023-03-25T01:05:23.095Z,1.10
2023-03-25T01:05:45.943Z,1.25
2023-03-25T01:06:11.705Z,1.30
2023-03-25T01:06:35.424Z,1.50
2023-03-25T01:06:58.236Z,1.30
2023-03-25T01:07:21.614Z,1.48
2023-03-25T01:07:44.385Z,1.60
2023-03-25T01:08:07.236Z,1.33
2023-03-25T01:08:32.123Z,1.30
2023-03-25T01:08:57.801Z,1.50
2023-03-25T01:09:22.454Z,1.20
2023-03-25T01:09:47.117Z,1.48
2023-03-25T01:10:11.747Z,1.50
2023-03-25T01:10:36.617Z,1.60
2023-03-25T01:10:59.365Z,1.42
2023-03-25T01:11:23.085Z,1.50
2023-03-25T01:11:45.942Z,1.50
2023-03-25T01:12:09.815Z,1.42
2023-03-25T01:12:32.506Z,1.60
2023-03-25T01:12:55.228Z,1.58
2023-03-25T01:13:21.790Z,1.60
2023-03-25T01:13:44.526Z,1.50
2023-03-25T01:14:08.419Z,1.50
2023-03-25T01:14:31.205Z,1.50
2023-03-25T01:14:53.995Z,1.27
2023-03-25T01:15:19.480Z,1.50
2023-03-25T01:15:42.546Z,1.55
2023-03-25T01:16:10.200Z,1.50
2023-03-25T01:16:33.184Z,1.50
2023-03-25T01:16:55.957Z,1.40
2023-03-25T01:17:18.785Z,1.30
2023-03-25T01:17:41.549Z,1.33
2023-03-25T01:18:04.936Z,1.30
2023-03-25T01:18:27.683Z,1.30
2023-03-25T01:18:50.521Z,1.20
2023-03-25T01:19:13.370Z,1.30
2023-03-25T01:19:36.218Z,1.20
2023-03-25T01:19:59.126Z,1.30
2023-03-25T01:20:21.886Z,1.30
2023-03-25T01:20:44.638Z,1.30
2023-03-25T01:21:08.001Z,1.20
2023-03-25T01:21:35.234Z,1.15
2023-03-25T01:21:57.943Z,1.05
2023-03-25T01:22:21.328Z,1.25
2023-03-25T01:22:44.095Z,1.50
2023-03-25T01:23:09.385Z,1.00
2023-03-25T01:23:32.170Z,1.00
2023-03-25T01:23:54.957Z,1.10
2023-03-25T01:24:17.688Z,1.17
2023-03-25T01:24:40.484Z,1.35
2023-03-25T01:25:06.793Z,1.20
2023-03-25T01:25:29.554Z,1.10
2023-03-25T01:25:52.820Z,1.00
2023-03-25T01:26:16.775Z,1.10
2023-03-25T01:26:41.433Z,1.23
2023-03-25T01:27:04.234Z,1.30
2023-03-25T01:27:26.979Z,1.30
2023-03-25T01:27:49.711Z,1.10
2023-03-25T01:28:12.658Z,1.30
2023-03-25T01:28:36.882Z,1.30
2023-03-25T01:28:59.662Z,1.25
2023-03-25T01:29:22.459Z,1.20
2023-03-25T01:29:45.775Z,1.20
2023-03-25T01:30:10.566Z,1.10
2023-03-25T01:30:33.574Z,1.10
2023-03-25T01:31:00.838Z,1.15
2023-03-25T01:31:23.827Z,1.30
2023-03-25T01:31:46.654Z,1.20
2023-03-25T01:32:09.436Z,1.05
2023-03-25T01:32:34.766Z,1.10
2023-03-25T01:32:57.548Z,1.20
2023-03-25T01:33:21.481Z,1.10
2023-03-25T01:33:44.271Z,1.02
2023-03-25T01:34:07.890Z,1.00
2023-03-25T01:34:32.654Z,1.00
2023-03-25T01:34:55.383Z,1.10
2023-03-25T01:35:20.748Z,1.08
2023-03-25T01:35:45.590Z,1.00
2023-03-25T01:36:09.908Z,1.00
2023-03-25T01:36:32.986Z,1.00
2023-03-25T01:36:55.991Z,1.00
2023-03-25T01:37:19.113Z,1.05
2023-03-25T01:37:44.274Z,1.00
2023-03-25T01:38:08.104Z,0.90
2023-03-25T01:38:30.926Z,0.82
2023-03-25T01:38:53.924Z,1.05
2023-03-25T01:39:19.180Z,1.10
2023-03-25T01:39:42.107Z,1.30
2023-03-25T01:40:07.250Z,1.08
2023-03-25T01:40:30.018Z,1.00
2023-03-25T01:40:53.924Z,1.00
2023-03-25T01:41:19.775Z,1.02
2023-03-25T01:41:49.663Z,1.20
2023-03-25T01:42:12.737Z,0.90
2023-03-25T01:42:35.470Z,1.10
2023-03-25T01:42:58.370Z,1.00
2023-03-25T01:43:21.132Z,0.90
2023-03-25T01:44:07.209Z,0.90
2023-03-25T01:45:08.029Z,0.80
2023-03-25T01:45:30.957Z,0.90
2023-03-25T01:45:53.771Z,0.85
2023-03-25T01:46:17.363Z,0.80
2023-03-25T01:46:45.426Z,0.85
2023-03-25T01:47:09.012Z,0.88
2023-03-25T01:47:32.988Z,0.93
2023-03-25T01:48:03.091Z,0.90
2023-03-25T01:48:28.078Z,0.98
2023-03-25T01:48:51.378Z,1.02
2023-03-25T01:49:15.631Z,0.90
2023-03-25T01:49:40.881Z,1.10
2023-03-25T01:50:04.341Z,0.90
2023-03-25T01:50:29.153Z,0.80
2023-03-25T01:50:53.219Z,0.75
2023-03-25T01:51:17.884Z,0.80
2023-03-25T01:51:42.574Z,0.77
2023-03-25T01:52:06.747Z,0.90
2023-03-25T01:52:30.917Z,1.02
2023-03-25T01:52:53.692Z,0.90
2023-03-25T01:53:17.002Z,0.82
2023-03-25T01:53:42.736Z,0.70
2023-03-25T01:54:05.929Z,0.95
2023-03-25T01:54:28.733Z,0.93
2023-03-25T01:54:54.762Z,0.90
2023-03-25T01:55:18.268Z,0.88
2023-03-25T01:55:41.002Z,0.80
2023-03-25T01:56:05.630Z,0.70
2023-03-25T01:56:32.213Z,0.90
2023-03-25T01:56:55.055Z,0.80
2023-03-25T01:57:19.711Z,0.82
2023-03-25T01:57:43.927Z,0.73
2023-03-25T01:58:12.016Z,0.80
2023-03-25T01:58:34.816Z,0.95
2023-03-25T01:58:58.126Z,0.95
2023-03-25T01:59:25.217Z,0.90
2023-03-25T01:59:48.012Z,0.93
2023-03-25T02:00:13.123Z,0.73
2023-03-25T02:00:37.675Z,0.98
2023-03-25T02:01:01.740Z,0.77
2023-03-25T02:01:26.913Z,0.93
2023-03-25T02:01:49.647Z,0.90
2023-03-25T02:02:15.905Z,0.80
2023-03-25T02:02:40.301Z,0.70
2023-03-25T02:03:03.379Z,0.80
2023-03-25T02:03:26.357Z,0.98
2023-03-25T02:03:51.265Z,0.90
2023-03-25T02:04:14.242Z,0.90
2023-03-25T02:04:40.613Z,0.70
2023-03-25T02:05:05.179Z,0.60
2023-03-25T02:05:32.613Z,0.80
2023-03-25T02:05:57.127Z,0.90
2023-03-25T02:06:21.142Z,0.80
2023-03-25T02:06:45.127Z,0.77
2023-03-25T02:07:11.565Z,0.80
2023-03-25T02:07:34.819Z,0.80
2023-03-25T02:07:58.252Z,0.90
2023-03-25T02:08:22.409Z,0.80
2023-03-25T02:08:45.216Z,0.70
2023-03-25T02:09:09.508Z,0.70
2023-03-25T02:09:32.393Z,0.70
2023-03-25T02:09:55.292Z,0.80
2023-03-25T02:10:18.985Z,0.80
2023-03-25T02:10:42.028Z,0.90
2023-03-25T02:11:05.142Z,0.80
2023-03-25T02:11:29.810Z,0.80
2023-03-25T02:11:54.984Z,0.90
2023-03-25T02:12:17.784Z,0.82
2023-03-25T02:12:41.848Z,0.80
2023-03-25T02:13:04.669Z,0.80
2023-03-25T02:13:27.456Z,0.85
2023-03-25T02:13:50.264Z,0.77
2023-03-25T02:14:13.858Z,0.90
2023-03-25T02:14:39.374Z,0.88
2023-03-25T02:15:02.761Z,0.90
2023-03-25T02:15:25.695Z,0.80
2023-03-25T02:16:06.804Z,0.80
2023-03-25T02:16:33.439Z,0.90
2023-03-25T02:16:58.452Z,0.90
2023-03-25T02:17:23.936Z,0.90
2023-03-25T02:18:17.818Z,0.82
2023-03-25T02:18:45.000Z,0.82
2023-03-25T02:19:33.343Z,1.00
2023-03-25T02:20:37.082Z,0.90
2023-03-25T02:21:47.523Z,0.95
2023-03-25T02:22:50.093Z,0.90
2023-03-25T02:23:22.259Z,1.00
2023-03-25T02:24:15.294Z,0.90
2023-03-25T02:25:06.117Z,1.00
2023-03-25T02:25:58.828Z,1.23
2023-03-25T02:26:36.681Z,1.00
2023-03-25T02:27:28.594Z,1.00
2023-03-25T02:27:56.595Z,0.90
2023-03-25T02:28:25.955Z,1.10
2023-03-25T02:28:50.413Z,1.00
2023-03-25T02:29:15.584Z,0.95
2023-03-25T02:29:54.167Z,1.00
2023-03-25T02:30:46.842Z,1.00
2023-03-25T02:31:25.700Z,0.90
2023-03-25T02:31:55.122Z,0.82
2023-03-25T02:32:24.970Z,1.10
2023-03-25T02:33:07.802Z,0.90
2023-03-25T02:33:56.207Z,1.00
2023-03-25T02:34:38.044Z,1.02
2023-03-25T02:35:18.609Z,1.08
2023-03-25T02:35:50.286Z,1.10
2023-03-25T02:36:41.695Z,0.90
2023-03-25T02:37:33.745Z,1.05
2023-03-25T02:38:18.732Z,0.90
2023-03-25T02:38:43.396Z,1.10
2023-03-25T02:39:08.385Z,0.95
2023-03-25T02:39:33.250Z,1.08
2023-03-25T02:40:00.202Z,1.00
2023-03-25T02:40:24.090Z,1.00
2023-03-25T02:40:48.871Z,1.00
2023-03-25T02:41:14.233Z,1.00
2023-03-25T02:41:40.168Z,1.20
2023-03-25T02:42:06.507Z,1.00
2023-03-25T02:42:32.306Z,1.10
2023-03-25T02:42:56.192Z,1.20
2023-03-25T02:43:21.673Z,1.00
2023-03-25T02:43:46.277Z,1.00
2023-03-25T02:44:12.236Z,1.10
2023-03-25T02:44:37.584Z,1.10
2023-03-25T02:45:01.468Z,1.00
2023-03-25T02:45:26.202Z,1.10
2023-03-25T02:45:51.694Z,1.25
2023-03-25T02:46:17.196Z,1.30
2023-03-25T02:46:40.802Z,1.30
2023-03-25T02:47:04.971Z,1.20
2023-03-25T02:47:29.975Z,1.10
2023-03-25T02:47:54.270Z,1.10
2023-03-25T02:48:20.676Z,1.30
2023-03-25T02:48:48.685Z,1.20
2023-03-25T02:49:12.127Z,1.10
2023-03-25T02:49:36.503Z,1.05
2023-03-25T02:50:01.139Z,1.20
2023-03-25T02:50:26.257Z,1.17
2023-03-25T02:50:52.256Z,1.30
2023-03-25T02:51:17.995Z,1.00
2023-03-25T02:51:43.863Z,1.20
2023-03-25T02:52:09.798Z,1.27
2023-03-25T02:52:33.651Z,1.30
2023-03-25T02:52:57.946Z,1.40
2023-03-25T02:53:25.644Z,1.30
2023-03-25T02:53:48.740Z,1.38
2023-03-25T02:54:13.373Z,1.40
2023-03-25T02:54:37.377Z,1.48
2023-03-25T02:55:04.574Z,1.60
2023-03-25T02:55:30.811Z,1.30
2023-03-25T02:55:54.567Z,1.30
2023-03-25T02:56:17.845Z,1.40
2023-03-25T02:56:41.172Z,1.40
2023-03-25T02:57:05.605Z,1.30
2023-03-25T02:57:31.003Z,1.20
2023-03-25T02:57:55.060Z,1.38
2023-03-25T02:58:21.687Z,1.35
2023-03-25T02:58:45.191Z,1.30
2023-03-25T02:59:08.353Z,1.10
2023-03-25T02:59:33.443Z,1.20
2023-03-25T02:59:56.973Z,1.38
2023-03-25T03:00:23.311Z,1.30
2023-03-25T03:00:46.098Z,1.30
2023-03-25T03:01:10.384Z,1.33
2023-03-25T03:01:35.115Z,1.30
2023-03-25T03:02:01.564Z,1.20
2023-03-25T03:02:25.932Z,1.17
2023-03-25T03:02:53.461Z,1.25
2023-03-25T03:03:19.414Z,1.40
2023-03-25T03:03:42.238Z,1.38
2023-03-25T03:04:05.206Z,1.40
2023-03-25T03:04:27.981Z,1.42
2023-03-25T03:04:53.007Z,1.60
2023-03-25T03:05:23.542Z,1.02
2023-03-25T03:05:48.233Z,1.30
2023-03-25T03:06:14.602Z,1.40
2023-03-25T03:06:40.047Z,1.50
2023-03-25T03:07:04.192Z,1.30
2023-03-25T03:07:29.453Z,1.30
2023-03-25T03:07:54.250Z,1.40
2023-03-25T03:08:26.542Z,1.42
2023-03-25T03:08:57.603Z,1.35
2023-03-25T03:09:27.551Z,1.50
2023-03-25T03:09:54.867Z,1.10
2023-03-25T03:10:20.665Z,1.50
2023-03-25T03:10:46.770Z,1.23
2023-03-25T03:11:13.381Z,1.20
2023-03-25T03:11:38.912Z,1.30
2023-03-25T03:12:10.897Z,1.50
2023-03-25T03:12:48.357Z,1.40
2023-03-25T03:13:18.816Z,1.40
2023-03-25T03:14:01.171Z,1.60
2023-03-25T03:14:35.710Z,1.50
2023-03-25T03:15:04.707Z,1.63
2023-03-25T03:15:36.103Z,1.50
2023-03-25T03:16:01.659Z,1.38
2023-03-25T03:16:31.152Z,1.42
2023-03-25T03:16:58.622Z,1.67
2023-03-25T03:17:25.637Z,1.45
2023-03-25T03:17:52.357Z,1.35
2023-03-25T03:18:18.694Z,1.40
2023-03-25T03:18:46.309Z,1.60
2023-03-25T03:19:16.409Z,1.65
2023-03-25T03:19:40.817Z,1.50
2023-03-25T03:20:06.644Z,1.50
2023-03-25T03:20:33.533Z,1.25
2023-03-25T03:20:57.676Z,1.50
2023-03-25T03:21:23.441Z,1.55
2023-03-25T03:21:51.909Z,1.63
2023-03-25T03:22:25.943Z,1.50
2023-03-25T03:22:52.971Z,1.42
2023-03-25T03:23:21.198Z,1.70
2023-03-25T03:23:51.123Z,1.40
2023-03-25T03:24:16.980Z,1.45
2023-03-25T03:24:40.454Z,1.30
2023-03-25T03:25:04.835Z,1.50
2023-03-25T03:25:29.053Z,1.58
2023-03-25T03:25:53.201Z,1.60
2023-03-25T03:26:20.903Z,1.50
2023-03-25T03:26:45.039Z,1.30
2023-03-25T03:27:09.563Z,1.50
2023-03-25T03:27:34.314Z,1.60
2023-03-25T03:27:59.106Z,1.45
2023-03-25T03:28:26.063Z,1.52
2023-03-25T03:28:50.593Z,1.58
2023-03-25T03:29:14.957Z,1.30
2023-03-25T03:29:38.722Z,1.60
2023-03-25T03:30:05.772Z,1.70
2023-03-25T03:30:30.248Z,1.50
2023-03-25T03:30:54.632Z,1.38
2023-03-25T03:31:48.213Z,1.40
2023-03-25T03:32:07.470Z,1.55
2023-03-25T03:32:35.222Z,1.30
2023-03-25T03:33:02.516Z,1.27
2023-03-25T03:33:27.119Z,1.42
2023-03-25T03:33:51.435Z,1.50
2023-03-25T03:34:15.928Z,1.45
2023-03-25T03:34:45.172Z,1.30
2023-03-25T03:35:10.141Z,1.33
2023-03-25T03:35:34.751Z,1.42
2023-03-25T03:36:02.300Z,1.35
2023-03-25T03:36:26.702Z,1.45
2023-03-25T03:36:51.462Z,1.65
2023-03-25T03:37:16.341Z,1.30
2023-03-25T03:37:41.169Z,1.35
2023-03-25T03:38:09.495Z,1.60
2023-03-25T03:38:35.088Z,1.67
2023-03-25T03:39:01.459Z,1.42
2023-03-25T03:39:25.136Z,1.30
2023-03-25T03:39:48.408Z,1.45
2023-03-25T03:40:13.252Z,1.65
2023-03-25T03:40:36.124Z,1.50
2023-03-25T03:41:01.980Z,1.40
2023-03-25T03:41:25.451Z,1.40
2023-03-25T03:41:50.930Z,1.45
2023-03-25T03:42:15.878Z,1.38
2023-03-25T03:42:40.450Z,1.40
2023-03-25T03:43:04.788Z,1.30
2023-03-25T03:43:28.982Z,1.45
2023-03-25T03:43:52.791Z,1.30
2023-03-25T03:44:17.130Z,1.50
2023-03-25T03:44:40.507Z,1.50
2023-03-25T03:45:05.297Z,1.70
2023-03-25T03:45:30.786Z,1.30
2023-03-25T03:45:55.518Z,1.40
2023-03-25T03:46:21.215Z,1.40
2023-03-25T03:46:46.411Z,1.45
2023-03-25T03:47:14.138Z,1.40
2023-03-25T03:47:39.672Z,1.60
2023-03-25T03:48:04.663Z,1.25
2023-03-25T03:48:29.811Z,1.40
2023-03-25T03:48:54.807Z,1.52
2023-03-25T03:49:18.861Z,1.50
2023-03-25T03:49:43.109Z,1.63
2023-03-25T03:50:09.524Z,1.50
2023-03-25T03:50:32.990Z,1.40
2023-03-25T03:50:57.351Z,1.60
2023-03-25T03:51:22.001Z,1.40
2023-03-25T03:51:46.908Z,1.40
2023-03-25T03:52:11.691Z,1.40
2023-03-25T03:52:37.987Z,1.50
2023-03-25T03:53:04.179Z,1.70
2023-03-25T03:53:28.340Z,1.52
2023-03-25T03:53:52.340Z,1.40
2023-03-25T03:54:17.991Z,1.40
2023-03-25T03:54:43.715Z,1.40
2023-03-25T03:55:10.928Z,1.70
2023-03-25T03:55:38.066Z,1.60
2023-03-25T03:56:03.787Z,1.60
2023-03-25T03:56:28.216Z,1.55
2023-03-25T03:56:53.618Z,1.60
2023-03-25T03:57:21.236Z,1.75
2023-03-25T03:57:45.670Z,1.90
2023-03-25T03:58:10.651Z,1.65
2023-03-25T03:58:34.990Z,1.70
2023-03-25T03:58:59.803Z,1.80
2023-03-25T03:59:38.914Z,1.85
2023-03-25T04:00:06.919Z,1.73
2023-03-25T04:00:31.765Z,1.50
2023-03-25T04:00:59.459Z,1.80
2023-03-25T04:01:30.563Z,1.92
2023-03-25T04:01:56.231Z,1.80
2023-03-25T04:02:23.609Z,1.65
2023-03-25T04:02:48.101Z,1.52
2023-03-25T04:03:14.656Z,1.63
2023-03-25T04:03:39.949Z,1.70
2023-03-25T04:04:04.081Z,1.80
2023-03-25T04:04:31.780Z,1.58
2023-03-25T04:04:54.923Z,1.90
2023-03-25T04:05:18.564Z,1.90
2023-03-25T04:05:42.594Z,1.92
2023-03-25T04:06:10.756Z,1.60
2023-03-25T04:06:38.798Z,1.75
2023-03-25T04:07:07.079Z,1.90
2023-03-25T04:07:39.005Z,1.90
2023-03-25T04:08:04.659Z,1.80
2023-03-25T04:08:29.509Z,1.70
2023-03-25T04:08:59.243Z,1.83
2023-03-25T04:09:27.673Z,1.73
2023-03-25T04:09:57.073Z,1.73
2023-03-25T04:10:22.246Z,1.95
2023-03-25T04:10:52.887Z,1.63
2023-03-25T04:11:18.471Z,1.65
2023-03-25T04:11:43.416Z,1.70
2023-03-25T04:12:07.798Z,1.52
2023-03-25T04:12:31.429Z,1.60
2023-03-25T04:12:54.211Z,1.67
2023-03-25T04:13:19.452Z,1.75
2023-03-25T04:13:43.112Z,1.73
2023-03-25T04:14:05.914Z,1.70
2023-03-25T04:14:28.898Z,1.90
2023-03-25T04:14:51.683Z,1.90
2023-03-25T04:15:14.778Z,1.75
2023-03-25T04:15:37.715Z,1.73
2023-03-25T04:16:00.874Z,2.00
2023-03-25T04:16:26.258Z,1.83
2023-03-25T04:16:49.083Z,1.70
2023-03-25T04:17:11.910Z,1.67
2023-03-25T04:17:34.717Z,1.80
2023-03-25T04:17:57.690Z,1.75
2023-03-25T04:18:23.583Z,1.90
2023-03-25T04:18:48.211Z,1.80
2023-03-25T04:19:13.762Z,1.90
2023-03-25T04:19:36.754Z,1.73
2023-03-25T04:19:59.589Z,1.80
2023-03-25T04:20:24.135Z,1.80
2023-03-25T04:20:50.138Z,2.10
2023-03-25T04:21:15.442Z,1.63
2023-03-25T04:21:38.217Z,1.60
2023-03-25T04:22:04.293Z,1.60
2023-03-25T04:22:27.149Z,1.85
2023-03-25T04:22:51.942Z,2.03
2023-03-25T04:23:16.400Z,1.90
2023-03-25T04:23:41.333Z,1.80
2023-03-25T04:24:08.524Z,1.92
2023-03-25T04:24:33.024Z,1.83
2023-03-25T04:24:56.366Z,1.92
2023-03-25T04:25:21.614Z,1.90
2023-03-25T04:25:48.016Z,1.88
2023-03-25T04:26:10.797Z,1.90
2023-03-25T04:26:34.160Z,1.80
2023-03-25T04:26:57.782Z,1.90
2023-03-25T04:27:23.310Z,1.80
2023-03-25T04:27:49.338Z,2.00
2023-03-25T04:28:14.062Z,1.83
2023-03-25T04:28:36.935Z,1.98
2023-03-25T04:29:00.600Z,1.85
2023-03-25T04:29:23.503Z,1.90
2023-03-25T04:29:48.082Z,1.50
2023-03-25T04:30:12.080Z,1.58
2023-03-25T04:30:34.958Z,1.80
2023-03-25T04:31:00.701Z,1.90
2023-03-25T04:31:26.046Z,1.70
2023-03-25T04:31:50.886Z,1.70
2023-03-25T04:32:14.041Z,1.77
2023-03-25T04:32:36.865Z,2.00
2023-03-25T04:33:00.858Z,2.00
2023-03-25T04:33:23.706Z,2.00
2023-03-25T04:33:50.831Z,1.95
2023-03-25T04:34:16.421Z,1.90
2023-03-25T04:34:39.471Z,1.88
2023-03-25T04:35:02.525Z,2.00
2023-03-25T04:35:26.032Z,2.00
2023-03-25T04:35:51.012Z,2.10
2023-03-25T04:36:14.770Z,1.95
2023-03-25T04:36:43.189Z,1.90
2023-03-25T04:37:06.119Z,1.90
2023-03-25T04:37:28.902Z,1.80
2023-03-25T04:37:54.645Z,1.73
2023-03-25T04:38:18.454Z,1.90
2023-03-25T04:38:41.497Z,1.70
2023-03-25T04:39:04.434Z,1.88
2023-03-25T04:39:29.801Z,1.90
2023-03-25T04:40:00.505Z,1.95
2023-03-25T04:40:25.859Z,1.90
2023-03-25T04:40:49.005Z,1.80
2023-03-25T04:41:12.182Z,1.92
2023-03-25T04:41:35.242Z,2.08
2023-03-25T04:41:57.988Z,1.90
2023-03-25T04:42:20.780Z,1.90
2023-03-25T04:42:44.342Z,1.88
2023-03-25T04:43:07.742Z,1.90
2023-03-25T04:43:30.506Z,1.75
2023-03-25T04:43:53.265Z,1.88
2023-03-25T04:44:16.195Z,1.75
2023-03-25T04:44:39.323Z,2.10
2023-03-25T04:45:02.697Z,1.90
2023-03-25T04:45:26.533Z,1.95
2023-03-25T04:45:55.295Z,1.90
2023-03-25T04:46:18.653Z,2.10
2023-03-25T04:46:43.762Z,1.80
2023-03-25T04:47:07.459Z,1.80
2023-03-25T04:47:30.163Z,1.90
2023-03-25T04:47:54.395Z,1.80
2023-03-25T04:48:21.564Z,1.73
2023-03-25T04:48:45.328Z,1.88
2023-03-25T04:49:14.482Z,1.73
2023-03-25T04:49:38.294Z,1.90
2023-03-25T04:50:02.095Z,1.98
2023-03-25T04:50:25.936Z,1.92
2023-03-25T04:50:49.141Z,1.98
2023-03-25T04:51:12.491Z,2.00
2023-03-25T04:51:35.220Z,1.90
2023-03-25T04:51:58.281Z,2.00
2023-03-25T04:52:21.033Z,1.77
2023-03-25T04:52:43.686Z,1.90
2023-03-25T04:53:06.415Z,1.92
2023-03-25T04:53:29.189Z,1.80
2023-03-25T04:53:54.469Z,1.92
2023-03-25T04:54:18.322Z,2.00
2023-03-25T04:54:41.268Z,1.70
2023-03-25T04:55:06.170Z,1.70
2023-03-25T04:55:30.063Z,1.85
2023-03-25T04:55:53.130Z,2.15
2023-03-25T04:56:17.296Z,2.08
2023-03-25T04:56:40.556Z,1.88
2023-03-25T04:57:03.409Z,1.80
2023-03-25T04:57:26.573Z,1.90
2023-03-25T04:57:50.100Z,1.88
2023-03-25T04:58:12.966Z,1.90
2023-03-25T04:58:37.357Z,1.80
2023-03-25T04:59:00.034Z,1.90
2023-03-25T04:59:23.391Z,1.73
2023-03-25T04:59:46.093Z,1.75
2023-03-25T05:00:13.533Z,1.90
2023-03-25T05:00:36.319Z,2.00
2023-03-25T05:01:06.201Z,1.77
2023-03-25T05:01:32.188Z,1.67
2023-03-25T05:01:54.963Z,1.70
2023-03-25T05:02:18.446Z,1.98
2023-03-25T05:02:46.000Z,1.90
2023-03-25T05:03:09.924Z,2.00
2023-03-25T05:03:32.705Z,1.80
2023-03-25T05:03:58.013Z,1.70
2023-03-25T05:04:21.755Z,1.70
2023-03-25T05:04:47.920Z,2.00
2023-03-25T05:05:10.982Z,1.90
2023-03-25T05:05:33.692Z,1.85
2023-03-25T05:05:56.641Z,1.75
2023-03-25T05:06:19.383Z,1.88
2023-03-25T05:06:43.586Z,2.10
2023-03-25T05:07:06.494Z,2.00
2023-03-25T05:07:30.095Z,1.70
2023-03-25T05:07:54.126Z,1.77
2023-03-25T05:08:16.854Z,1.90
2023-03-25T05:08:39.531Z,1.92
2023-03-25T05:09:04.249Z,1.70
2023-03-25T05:09:27.052Z,1.90
2023-03-25T05:09:49.850Z,1.70
2023-03-25T05:10:15.809Z,1.75
2023-03-25T05:10:39.247Z,1.80
2023-03-25T05:11:03.250Z,2.08
2023-03-25T05:11:26.132Z,1.90
2023-03-25T05:11:48.951Z,1.90
2023-03-25T05:12:11.949Z,1.95
2023-03-25T05:12:34.767Z,1.90
2023-03-25T05:13:00.440Z,1.90
2023-03-25T05:13:23.223Z,1.90
2023-03-25T05:13:46.017Z,1.90
2023-03-25T05:14:08.830Z,1.85
2023-03-25T05:14:31.585Z,1.70
2023-03-25T05:14:54.342Z,1.70
2023-03-25T05:15:17.637Z,1.80
2023-03-25T05:15:40.637Z,1.85
2023-03-25T05:16:03.424Z,1.80
2023-03-25T05:16:26.853Z,2.00
2023-03-25T05:16:49.930Z,1.80
2023-03-25T05:17:12.736Z,1.88
2023-03-25T05:17:38.487Z,2.10
2023-03-25T05:18:02.130Z,1.90
2023-03-25T05:18:24.939Z,1.88
2023-03-25T05:18:47.662Z,1.90
2023-03-25T05:19:10.539Z,2.20
2023-03-25T05:19:35.582Z,2.22
2023-03-25T05:19:58.645Z,2.20
2023-03-25T05:20:22.648Z,2.20
2023-03-25T05:20:46.910Z,2.30
2023-03-25T05:21:11.474Z,2.20
2023-03-25T05:21:36.203Z,2.30
2023-03-25T05:22:01.807Z,2.33
2023-03-25T05:22:24.638Z,2.22
2023-03-25T05:22:47.358Z,2.10
2023-03-25T05:23:12.422Z,2.50
2023-03-25T05:23:35.534Z,2.50
2023-03-25T05:23:58.900Z,2.47
2023-03-25T05:24:21.668Z,2.35
2023-03-25T05:24:45.375Z,2.20
2023-03-25T05:25:08.890Z,2.20
2023-03-25T05:25:34.590Z,2.30
2023-03-25T05:25:57.295Z,2.60
2023-03-25T05:26:20.999Z,2.20
2023-03-25T05:26:43.777Z,2.08
2023-03-25T05:27:06.501Z,2.30
2023-03-25T05:27:30.421Z,2.50
2023-03-25T05:27:54.514Z,2.60
2023-03-25T05:28:17.364Z,2.40
2023-03-25T05:28:40.200Z,2.33
2023-03-25T05:29:05.842Z,2.17
2023-03-25T05:29:34.074Z,2.20
2023-03-25T05:29:58.603Z,2.30
2023-03-25T05:30:21.454Z,2.33
2023-03-25T05:30:46.222Z,2.03
2023-03-25T05:31:09.692Z,2.20
2023-03-25T05:31:32.501Z,2.47
2023-03-25T05:31:55.384Z,2.72
2023-03-25T05:32:18.137Z,2.50
2023-03-25T05:32:41.590Z,2.47
2023-03-25T05:33:04.660Z,2.67
2023-03-25T05:33:27.485Z,2.50
2023-03-25T05:33:51.704Z,2.50
2023-03-25T05:34:14.849Z,2.30
2023-03-25T05:34:38.749Z,2.42
2023-03-25T05:35:01.622Z,2.33
2023-03-25T05:35:26.997Z,2.30
2023-03-25T05:35:50.672Z,2.20
2023-03-25T05:36:13.841Z,2.50
2023-03-25T05:36:38.271Z,2.30